sensor_id;sensor_type;location;lat;lon;timestamp;P1;durP1;ratioP1;P2;durP2;ratioP2
45408;SDS011;31162;51.076;3.784;2023-03-14T00:02:25;7.38;;;1.42;;
45408;SDS011;31162;51.076;3.784;2023-03-14T00:04:53;4.40;;;1.42;;
45408;SDS011;31162;51.076;3.784;2023-03-14T00:07:21;8.48;;;1.25;;
45408;SDS011;31162;51.076;3.784;2023-03-14T00:09:49;4.40;;;1.25;;
45408;SDS011;31162;51.076;3.784;2023-03-14T00:12:15;4.72;;;1.30;;
45408;SDS011;31162;51.076;3.784;2023-03-14T00:14:41;5.15;;;1.00;;
45408;SDS011;31162;51.076;3.784;2023-03-14T00:17:08;6.13;;;1.30;;
45408;SDS011;31162;51.076;3.784;2023-03-14T00:19:33;3.13;;;0.88;;
45408;SDS011;31162;51.076;3.784;2023-03-14T00:21:59;4.57;;;1.50;;
45408;SDS011;31162;51.076;3.784;2023-03-14T00:24:24;5.00;;;1.23;;
45408;SDS011;31162;51.076;3.784;2023-03-14T00:26:50;4.45;;;1.50;;
45408;SDS011;31162;51.076;3.784;2023-03-14T00:29:16;5.30;;;1.00;;
45408;SDS011;31162;51.076;3.784;2023-03-14T00:31:41;5.88;;;1.52;;
45408;SDS011;31162;51.076;3.784;2023-03-14T00:34:07;5.53;;;1.83;;
45408;SDS011;31162;51.076;3.784;2023-03-14T00:36:33;8.02;;;1.45;;
45408;SDS011;31162;51.076;3.784;2023-03-14T00:38:59;7.22;;;1.48;;
45408;SDS011;31162;51.076;3.784;2023-03-14T00:41:25;7.38;;;1.50;;
45408;SDS011;31162;51.076;3.784;2023-03-14T00:43:51;5.93;;;1.70;;
45408;SDS011;31162;51.076;3.784;2023-03-14T00:46:17;6.32;;;1.65;;
45408;SDS011;31162;51.076;3.784;2023-03-14T00:48:44;7.75;;;1.60;;
45408;SDS011;31162;51.076;3.784;2023-03-14T00:51:11;7.38;;;1.95;;
45408;SDS011;31162;51.076;3.784;2023-03-14T00:53:40;6.32;;;1.90;;
45408;SDS011;31162;51.076;3.784;2023-03-14T00:56:07;7.95;;;1.73;;
45408;SDS011;31162;51.076;3.784;2023-03-14T00:58:35;9.43;;;2.22;;
45408;SDS011;31162;51.076;3.784;2023-03-14T01:01:05;4.93;;;1.60;;
45408;SDS011;31162;51.076;3.784;2023-03-14T01:03:32;6.53;;;1.95;;
45408;SDS011;31162;51.076;3.784;2023-03-14T01:06:20;7.20;;;2.20;;
45408;SDS011;31162;51.076;3.784;2023-03-14T01:08:53;7.20;;;1.50;;
45408;SDS011;31162;51.076;3.784;2023-03-14T01:11:21;10.68;;;2.10;;
45408;SDS011;31162;51.076;3.784;2023-03-14T01:13:48;9.43;;;1.90;;
45408;SDS011;31162;51.076;3.784;2023-03-14T01:16:15;9.07;;;2.10;;
45408;SDS011;31162;51.076;3.784;2023-03-14T01:18:43;9.55;;;2.20;;
45408;SDS011;31162;51.076;3.784;2023-03-14T01:21:11;7.45;;;1.90;;
45408;SDS011;31162;51.076;3.784;2023-03-14T01:23:42;9.23;;;1.90;;
45408;SDS011;31162;51.076;3.784;2023-03-14T01:26:09;9.07;;;1.95;;
45408;SDS011;31162;51.076;3.784;2023-03-14T01:28:35;7.63;;;2.03;;
45408;SDS011;31162;51.076;3.784;2023-03-14T01:31:05;10.82;;;2.53;;
45408;SDS011;31162;51.076;3.784;2023-03-14T01:33:32;8.88;;;2.08;;
45408;SDS011;31162;51.076;3.784;2023-03-14T01:35:58;9.27;;;2.13;;
45408;SDS011;31162;51.076;3.784;2023-03-14T01:38:24;10.90;;;2.10;;
45408;SDS011;31162;51.076;3.784;2023-03-14T01:40:49;8.95;;;1.90;;
45408;SDS011;31162;51.076;3.784;2023-03-14T01:43:16;9.55;;;2.13;;
45408;SDS011;31162;51.076;3.784;2023-03-14T01:51:12;9.57;;;1.80;;
45408;SDS011;31162;51.076;3.784;2023-03-14T01:53:49;7.57;;;1.70;;
45408;SDS011;31162;51.076;3.784;2023-03-14T01:56:19;5.70;;;1.45;;
45408;SDS011;31162;51.076;3.784;2023-03-14T01:58:45;7.53;;;1.48;;
45408;SDS011;31162;51.076;3.784;2023-03-14T02:01:15;10.98;;;1.98;;
45408;SDS011;31162;51.076;3.784;2023-03-14T02:03:50;7.82;;;1.60;;
45408;SDS011;31162;51.076;3.784;2023-03-14T02:06:24;5.82;;;1.40;;
45408;SDS011;31162;51.076;3.784;2023-03-14T02:08:54;5.75;;;1.45;;
45408;SDS011;31162;51.076;3.784;2023-03-14T02:11:20;6.93;;;1.67;;
45408;SDS011;31162;51.076;3.784;2023-03-14T02:13:46;5.07;;;1.17;;
45408;SDS011;31162;51.076;3.784;2023-03-14T02:16:13;5.68;;;1.27;;
45408;SDS011;31162;51.076;3.784;2023-03-14T02:18:39;7.45;;;1.55;;
45408;SDS011;31162;51.076;3.784;2023-03-14T02:21:08;5.15;;;1.13;;
45408;SDS011;31162;51.076;3.784;2023-03-14T02:29:31;3.80;;;1.00;;
45408;SDS011;31162;51.076;3.784;2023-03-14T02:32:01;3.22;;;1.20;;
45408;SDS011;31162;51.076;3.784;2023-03-14T02:34:27;6.70;;;1.35;;
45408;SDS011;31162;51.076;3.784;2023-03-14T02:36:53;2.97;;;0.90;;
45408;SDS011;31162;51.076;3.784;2023-03-14T02:39:21;4.38;;;1.08;;
45408;SDS011;31162;51.076;3.784;2023-03-14T02:41:53;3.20;;;0.90;;
45408;SDS011;31162;51.076;3.784;2023-03-14T02:44:19;3.40;;;1.02;;
45408;SDS011;31162;51.076;3.784;2023-03-14T02:46:44;4.43;;;1.00;;
45408;SDS011;31162;51.076;3.784;2023-03-14T02:49:10;4.28;;;1.20;;
45408;SDS011;31162;51.076;3.784;2023-03-14T02:51:38;4.65;;;1.13;;
45408;SDS011;31162;51.076;3.784;2023-03-14T02:54:06;5.38;;;1.17;;
45408;SDS011;31162;51.076;3.784;2023-03-14T02:56:32;3.95;;;0.80;;
45408;SDS011;31162;51.076;3.784;2023-03-14T02:58:58;4.45;;;1.10;;
45408;SDS011;31162;51.076;3.784;2023-03-14T03:01:24;5.43;;;1.40;;
45408;SDS011;31162;51.076;3.784;2023-03-14T03:03:50;3.95;;;1.23;;
45408;SDS011;31162;51.076;3.784;2023-03-14T03:06:15;2.78;;;1.05;;
45408;SDS011;31162;51.076;3.784;2023-03-14T03:08:41;3.25;;;1.20;;
45408;SDS011;31162;51.076;3.784;2023-03-14T03:11:07;5.05;;;1.30;;
45408;SDS011;31162;51.076;3.784;2023-03-14T03:13:33;3.05;;;1.20;;
45408;SDS011;31162;51.076;3.784;2023-03-14T03:15:59;6.25;;;1.30;;
45408;SDS011;31162;51.076;3.784;2023-03-14T03:18:24;5.13;;;1.20;;
45408;SDS011;31162;51.076;3.784;2023-03-14T03:20:50;5.13;;;1.63;;
45408;SDS011;31162;51.076;3.784;2023-03-14T03:23:16;3.55;;;0.90;;
45408;SDS011;31162;51.076;3.784;2023-03-14T03:25:41;5.30;;;1.52;;
45408;SDS011;31162;51.076;3.784;2023-03-14T03:28:07;6.78;;;1.73;;
45408;SDS011;31162;51.076;3.784;2023-03-14T03:30:36;4.82;;;1.52;;
45408;SDS011;31162;51.076;3.784;2023-03-14T03:33:05;4.82;;;1.50;;
45408;SDS011;31162;51.076;3.784;2023-03-14T03:35:31;4.78;;;1.80;;
45408;SDS011;31162;51.076;3.784;2023-03-14T03:37:57;7.10;;;1.70;;
45408;SDS011;31162;51.076;3.784;2023-03-14T03:40:22;6.18;;;1.60;;
45408;SDS011;31162;51.076;3.784;2023-03-14T03:42:48;4.28;;;1.95;;
45408;SDS011;31162;51.076;3.784;2023-03-14T03:45:14;4.05;;;1.65;;
45408;SDS011;31162;51.076;3.784;2023-03-14T03:47:39;7.55;;;2.30;;
45408;SDS011;31162;51.076;3.784;2023-03-14T03:50:05;7.28;;;2.00;;
45408;SDS011;31162;51.076;3.784;2023-03-14T03:52:31;7.95;;;2.40;;
45408;SDS011;31162;51.076;3.784;2023-03-14T03:54:57;7.30;;;2.25;;
45408;SDS011;31162;51.076;3.784;2023-03-14T03:57:23;5.43;;;2.47;;
45408;SDS011;31162;51.076;3.784;2023-03-14T03:59:48;4.97;;;2.25;;
45408;SDS011;31162;51.076;3.784;2023-03-14T04:02:14;4.78;;;2.10;;
45408;SDS011;31162;51.076;3.784;2023-03-14T04:04:39;5.53;;;2.88;;
45408;SDS011;31162;51.076;3.784;2023-03-14T04:07:05;10.05;;;2.85;;
45408;SDS011;31162;51.076;3.784;2023-03-14T04:09:31;9.35;;;3.10;;
45408;SDS011;31162;51.076;3.784;2023-03-14T04:11:56;6.25;;;2.65;;
45408;SDS011;31162;51.076;3.784;2023-03-14T04:14:22;7.68;;;3.47;;
45408;SDS011;31162;51.076;3.784;2023-03-14T04:16:48;7.97;;;3.10;;
45408;SDS011;31162;51.076;3.784;2023-03-14T04:19:14;6.97;;;3.78;;
45408;SDS011;31162;51.076;3.784;2023-03-14T04:21:40;6.97;;;3.58;;
45408;SDS011;31162;51.076;3.784;2023-03-14T04:24:09;6.32;;;3.53;;
45408;SDS011;31162;51.076;3.784;2023-03-14T04:26:35;8.88;;;3.92;;
45408;SDS011;31162;51.076;3.784;2023-03-14T04:29:01;9.82;;;4.15;;
45408;SDS011;31162;51.076;3.784;2023-03-14T04:31:27;8.63;;;4.30;;
45408;SDS011;31162;51.076;3.784;2023-03-14T04:33:53;8.48;;;4.88;;
45408;SDS011;31162;51.076;3.784;2023-03-14T04:36:19;8.00;;;4.90;;
45408;SDS011;31162;51.076;3.784;2023-03-14T04:38:44;7.90;;;5.18;;
45408;SDS011;31162;51.076;3.784;2023-03-14T04:41:10;7.70;;;5.45;;
45408;SDS011;31162;51.076;3.784;2023-03-14T04:43:36;8.82;;;5.40;;
45408;SDS011;31162;51.076;3.784;2023-03-14T04:46:01;9.63;;;5.45;;
45408;SDS011;31162;51.076;3.784;2023-03-14T04:48:27;8.27;;;5.40;;
45408;SDS011;31162;51.076;3.784;2023-03-14T04:50:53;10.40;;;5.53;;
45408;SDS011;31162;51.076;3.784;2023-03-14T04:53:20;10.27;;;4.93;;
45408;SDS011;31162;51.076;3.784;2023-03-14T04:55:49;7.32;;;4.10;;
45408;SDS011;31162;51.076;3.784;2023-03-14T04:58:16;8.55;;;3.95;;
45408;SDS011;31162;51.076;3.784;2023-03-14T05:00:41;8.05;;;3.55;;
45408;SDS011;31162;51.076;3.784;2023-03-14T05:03:07;7.22;;;3.35;;
45408;SDS011;31162;51.076;3.784;2023-03-14T05:05:33;6.43;;;3.03;;
45408;SDS011;31162;51.076;3.784;2023-03-14T05:07:58;6.85;;;2.85;;
45408;SDS011;31162;51.076;3.784;2023-03-14T05:10:24;4.03;;;2.08;;
45408;SDS011;31162;51.076;3.784;2023-03-14T05:12:50;3.78;;;1.75;;
45408;SDS011;31162;51.076;3.784;2023-03-14T05:15:16;4.03;;;1.63;;
45408;SDS011;31162;51.076;3.784;2023-03-14T05:17:42;3.45;;;1.52;;
45408;SDS011;31162;51.076;3.784;2023-03-14T05:20:08;3.78;;;1.20;;
45408;SDS011;31162;51.076;3.784;2023-03-14T05:22:34;4.53;;;1.40;;
45408;SDS011;31162;51.076;3.784;2023-03-14T05:24:59;2.30;;;1.30;;
45408;SDS011;31162;51.076;3.784;2023-03-14T05:27:25;3.20;;;1.25;;
45408;SDS011;31162;51.076;3.784;2023-03-14T05:29:51;4.45;;;1.77;;
45408;SDS011;31162;51.076;3.784;2023-03-14T05:32:17;4.90;;;1.80;;
45408;SDS011;31162;51.076;3.784;2023-03-14T05:34:42;3.45;;;1.60;;
45408;SDS011;31162;51.076;3.784;2023-03-14T05:37:08;17.83;;;12.75;;
45408;SDS011;31162;51.076;3.784;2023-03-14T05:39:34;4.47;;;2.72;;
45408;SDS011;31162;51.076;3.784;2023-03-14T05:41:59;3.03;;;1.88;;
45408;SDS011;31162;51.076;3.784;2023-03-14T05:44:25;5.20;;;3.28;;
45408;SDS011;31162;51.076;3.784;2023-03-14T05:46:50;5.10;;;2.80;;
45408;SDS011;31162;51.076;3.784;2023-03-14T05:49:16;9.68;;;4.32;;
45408;SDS011;31162;51.076;3.784;2023-03-14T05:51:42;9.25;;;3.92;;
45408;SDS011;31162;51.076;3.784;2023-03-14T05:54:07;7.93;;;4.00;;
45408;SDS011;31162;51.076;3.784;2023-03-14T05:56:33;8.25;;;4.53;;
45408;SDS011;31162;51.076;3.784;2023-03-14T05:58:59;11.40;;;4.78;;
45408;SDS011;31162;51.076;3.784;2023-03-14T06:01:27;10.07;;;5.93;;
45408;SDS011;31162;51.076;3.784;2023-03-14T06:03:52;7.53;;;5.50;;
45408;SDS011;31162;51.076;3.784;2023-03-14T06:06:18;8.43;;;4.93;;
45408;SDS011;31162;51.076;3.784;2023-03-14T06:08:44;9.52;;;4.85;;
45408;SDS011;31162;51.076;3.784;2023-03-14T06:11:09;6.90;;;5.28;;
45408;SDS011;31162;51.076;3.784;2023-03-14T06:13:35;7.70;;;4.30;;
45408;SDS011;31162;51.076;3.784;2023-03-14T06:16:01;7.78;;;3.70;;
45408;SDS011;31162;51.076;3.784;2023-03-14T06:18:26;6.55;;;4.55;;
45408;SDS011;31162;51.076;3.784;2023-03-14T06:20:55;5.43;;;3.38;;
45408;SDS011;31162;51.076;3.784;2023-03-14T06:23:21;10.10;;;4.20;;
45408;SDS011;31162;51.076;3.784;2023-03-14T06:25:47;7.57;;;4.20;;
45408;SDS011;31162;51.076;3.784;2023-03-14T06:28:13;6.38;;;4.30;;
45408;SDS011;31162;51.076;3.784;2023-03-14T06:30:39;7.78;;;3.30;;
45408;SDS011;31162;51.076;3.784;2023-03-14T06:33:05;8.98;;;5.00;;
45408;SDS011;31162;51.076;3.784;2023-03-14T06:35:30;7.10;;;4.45;;
45408;SDS011;31162;51.076;3.784;2023-03-14T06:37:56;9.63;;;5.35;;
45408;SDS011;31162;51.076;3.784;2023-03-14T06:40:22;14.95;;;7.85;;
45408;SDS011;31162;51.076;3.784;2023-03-14T06:42:47;8.50;;;4.32;;
45408;SDS011;31162;51.076;3.784;2023-03-14T06:45:13;8.68;;;5.53;;
45408;SDS011;31162;51.076;3.784;2023-03-14T06:47:39;7.28;;;5.30;;
45408;SDS011;31162;51.076;3.784;2023-03-14T06:50:05;7.20;;;5.88;;
45408;SDS011;31162;51.076;3.784;2023-03-14T06:52:32;11.65;;;5.25;;
45408;SDS011;31162;51.076;3.784;2023-03-14T06:54:58;8.23;;;5.40;;
45408;SDS011;31162;51.076;3.784;2023-03-14T06:57:24;8.85;;;5.90;;
45408;SDS011;31162;51.076;3.784;2023-03-14T06:59:50;7.25;;;5.28;;
45408;SDS011;31162;51.076;3.784;2023-03-14T07:02:16;9.27;;;4.38;;
45408;SDS011;31162;51.076;3.784;2023-03-14T07:04:41;7.57;;;4.28;;
45408;SDS011;31162;51.076;3.784;2023-03-14T07:07:07;6.65;;;4.80;;
45408;SDS011;31162;51.076;3.784;2023-03-14T07:09:33;11.40;;;5.60;;
45408;SDS011;31162;51.076;3.784;2023-03-14T07:12:00;12.77;;;6.20;;
45408;SDS011;31162;51.076;3.784;2023-03-14T07:14:26;12.93;;;6.03;;
45408;SDS011;31162;51.076;3.784;2023-03-14T07:16:51;8.00;;;5.43;;
45408;SDS011;31162;51.076;3.784;2023-03-14T07:19:17;12.48;;;6.22;;
45408;SDS011;31162;51.076;3.784;2023-03-14T07:21:43;7.63;;;6.03;;
45408;SDS011;31162;51.076;3.784;2023-03-14T07:24:09;9.77;;;4.85;;
45408;SDS011;31162;51.076;3.784;2023-03-14T07:26:34;11.88;;;5.80;;
45408;SDS011;31162;51.076;3.784;2023-03-14T07:29:00;8.43;;;5.13;;
45408;SDS011;31162;51.076;3.784;2023-03-14T07:31:28;12.18;;;5.40;;
45408;SDS011;31162;51.076;3.784;2023-03-14T07:33:55;8.32;;;5.88;;
45408;SDS011;31162;51.076;3.784;2023-03-14T07:36:21;8.77;;;5.18;;
45408;SDS011;31162;51.076;3.784;2023-03-14T07:38:47;9.15;;;5.72;;
45408;SDS011;31162;51.076;3.784;2023-03-14T07:41:12;8.85;;;5.85;;
45408;SDS011;31162;51.076;3.784;2023-03-14T07:43:39;8.52;;;6.53;;
45408;SDS011;31162;51.076;3.784;2023-03-14T07:46:05;9.65;;;6.90;;
45408;SDS011;31162;51.076;3.784;2023-03-14T07:48:31;9.43;;;5.93;;
45408;SDS011;31162;51.076;3.784;2023-03-14T07:50:56;6.88;;;5.30;;
45408;SDS011;31162;51.076;3.784;2023-03-14T07:53:23;6.00;;;5.28;;
45408;SDS011;31162;51.076;3.784;2023-03-14T07:55:50;9.20;;;5.03;;
45408;SDS011;31162;51.076;3.784;2023-03-14T07:58:17;7.85;;;5.40;;
45408;SDS011;31162;51.076;3.784;2023-03-14T08:00:43;5.50;;;4.72;;
45408;SDS011;31162;51.076;3.784;2023-03-14T08:03:08;12.00;;;7.70;;
45408;SDS011;31162;51.076;3.784;2023-03-14T08:05:35;10.10;;;6.25;;
45408;SDS011;31162;51.076;3.784;2023-03-14T08:08:02;9.70;;;5.70;;
45408;SDS011;31162;51.076;3.784;2023-03-14T08:10:28;10.18;;;5.68;;
45408;SDS011;31162;51.076;3.784;2023-03-14T08:12:54;7.72;;;5.53;;
45408;SDS011;31162;51.076;3.784;2023-03-14T08:15:21;9.65;;;6.68;;
45408;SDS011;31162;51.076;3.784;2023-03-14T08:17:48;9.65;;;6.57;;
45408;SDS011;31162;51.076;3.784;2023-03-14T08:20:19;7.43;;;5.32;;
45408;SDS011;31162;51.076;3.784;2023-03-14T08:22:46;7.15;;;5.40;;
45408;SDS011;31162;51.076;3.784;2023-03-14T08:25:13;8.73;;;6.00;;
45408;SDS011;31162;51.076;3.784;2023-03-14T08:27:39;7.88;;;6.20;;
45408;SDS011;31162;51.076;3.784;2023-03-14T08:30:07;9.98;;;6.63;;
45408;SDS011;31162;51.076;3.784;2023-03-14T08:32:35;9.38;;;6.10;;
45408;SDS011;31162;51.076;3.784;2023-03-14T08:35:01;10.00;;;7.32;;
45408;SDS011;31162;51.076;3.784;2023-03-14T08:37:27;10.18;;;6.50;;
45408;SDS011;31162;51.076;3.784;2023-03-14T08:39:53;8.00;;;6.13;;
45408;SDS011;31162;51.076;3.784;2023-03-14T08:42:19;8.30;;;5.47;;
45408;SDS011;31162;51.076;3.784;2023-03-14T08:44:44;8.95;;;5.07;;
45408;SDS011;31162;51.076;3.784;2023-03-14T08:47:10;8.93;;;5.38;;
45408;SDS011;31162;51.076;3.784;2023-03-14T08:49:36;7.63;;;5.53;;
45408;SDS011;31162;51.076;3.784;2023-03-14T08:52:02;9.38;;;5.00;;
45408;SDS011;31162;51.076;3.784;2023-03-14T08:54:29;7.03;;;3.85;;
45408;SDS011;31162;51.076;3.784;2023-03-14T08:56:55;5.70;;;3.80;;
45408;SDS011;31162;51.076;3.784;2023-03-14T08:59:21;4.28;;;3.40;;
45408;SDS011;31162;51.076;3.784;2023-03-14T09:01:47;8.00;;;3.95;;
45408;SDS011;31162;51.076;3.784;2023-03-14T09:04:13;7.35;;;3.90;;
45408;SDS011;31162;51.076;3.784;2023-03-14T09:06:38;6.53;;;4.20;;
45408;SDS011;31162;51.076;3.784;2023-03-14T09:09:04;6.35;;;3.60;;
45408;SDS011;31162;51.076;3.784;2023-03-14T09:11:30;10.00;;;3.85;;
45408;SDS011;31162;51.076;3.784;2023-03-14T09:13:56;6.53;;;3.95;;
45408;SDS011;31162;51.076;3.784;2023-03-14T09:16:22;9.55;;;3.70;;
45408;SDS011;31162;51.076;3.784;2023-03-14T09:18:47;8.90;;;3.70;;
45408;SDS011;31162;51.076;3.784;2023-03-14T09:21:13;10.13;;;3.88;;
45408;SDS011;31162;51.076;3.784;2023-03-14T09:23:40;12.35;;;3.40;;
45408;SDS011;31162;51.076;3.784;2023-03-14T09:26:07;10.82;;;3.88;;
45408;SDS011;31162;51.076;3.784;2023-03-14T09:28:33;13.52;;;5.15;;
45408;SDS011;31162;51.076;3.784;2023-03-14T09:31:04;11.73;;;3.53;;
45408;SDS011;31162;51.076;3.784;2023-03-14T09:33:31;12.75;;;2.97;;
45408;SDS011;31162;51.076;3.784;2023-03-14T09:36:00;9.35;;;3.35;;
45408;SDS011;31162;51.076;3.784;2023-03-14T09:38:26;13.15;;;3.30;;
45408;SDS011;31162;51.076;3.784;2023-03-14T09:40:52;11.75;;;3.78;;
45408;SDS011;31162;51.076;3.784;2023-03-14T09:43:19;7.40;;;3.25;;
45408;SDS011;31162;51.076;3.784;2023-03-14T09:45:47;6.82;;;3.03;;
45408;SDS011;31162;51.076;3.784;2023-03-14T09:48:26;5.50;;;2.55;;
45408;SDS011;31162;51.076;3.784;2023-03-14T09:50:54;5.30;;;2.30;;
45408;SDS011;31162;51.076;3.784;2023-03-14T09:53:26;5.65;;;3.15;;
45408;SDS011;31162;51.076;3.784;2023-03-14T09:55:56;6.93;;;2.20;;
45408;SDS011;31162;51.076;3.784;2023-03-14T09:58:23;5.55;;;1.90;;
45408;SDS011;31162;51.076;3.784;2023-03-14T10:00:50;4.32;;;1.60;;
45408;SDS011;31162;51.076;3.784;2023-03-14T10:03:32;2.58;;;1.15;;
45408;SDS011;31162;51.076;3.784;2023-03-14T10:05:59;6.68;;;1.73;;
45408;SDS011;31162;51.076;3.784;2023-03-14T10:08:25;3.15;;;1.30;;
45408;SDS011;31162;51.076;3.784;2023-03-14T10:10:50;5.18;;;1.92;;
45408;SDS011;31162;51.076;3.784;2023-03-14T10:13:18;4.70;;;1.30;;
45408;SDS011;31162;51.076;3.784;2023-03-14T10:15:55;7.78;;;1.50;;
45408;SDS011;31162;51.076;3.784;2023-03-14T10:18:29;4.63;;;1.63;;
45408;SDS011;31162;51.076;3.784;2023-03-14T10:21:03;4.28;;;1.50;;
45408;SDS011;31162;51.076;3.784;2023-03-14T10:23:42;3.75;;;1.35;;
45408;SDS011;31162;51.076;3.784;2023-03-14T10:26:14;4.53;;;2.10;;
45408;SDS011;31162;51.076;3.784;2023-03-14T10:31:16;5.70;;;1.50;;
45408;SDS011;31162;51.076;3.784;2023-03-14T10:33:42;5.80;;;1.80;;
45408;SDS011;31162;51.076;3.784;2023-03-14T10:36:29;5.00;;;1.73;;
45408;SDS011;31162;51.076;3.784;2023-03-14T10:39:14;5.00;;;1.90;;
45408;SDS011;31162;51.076;3.784;2023-03-14T10:41:48;3.80;;;1.77;;
45408;SDS011;31162;51.076;3.784;2023-03-14T10:44:18;3.42;;;1.50;;
45408;SDS011;31162;51.076;3.784;2023-03-14T10:46:58;4.50;;;1.80;;
45408;SDS011;31162;51.076;3.784;2023-03-14T10:49:30;6.18;;;1.80;;
45408;SDS011;31162;51.076;3.784;2023-03-14T10:54:48;5.45;;;2.15;;
45408;SDS011;31162;51.076;3.784;2023-03-14T10:57:20;3.63;;;2.63;;
45408;SDS011;31162;51.076;3.784;2023-03-14T10:59:46;7.93;;;2.25;;
45408;SDS011;31162;51.076;3.784;2023-03-14T11:07:24;6.68;;;2.50;;
45408;SDS011;31162;51.076;3.784;2023-03-14T11:15:50;4.50;;;2.00;;
45408;SDS011;31162;51.076;3.784;2023-03-14T11:26:48;13.65;;;3.05;;
45408;SDS011;31162;51.076;3.784;2023-03-14T11:29:40;7.45;;;2.30;;
45408;SDS011;31162;51.076;3.784;2023-03-14T11:32:23;8.38;;;2.60;;
45408;SDS011;31162;51.076;3.784;2023-03-14T11:35:13;8.07;;;2.90;;
45408;SDS011;31162;51.076;3.784;2023-03-14T11:37:55;5.72;;;2.67;;
45408;SDS011;31162;51.076;3.784;2023-03-14T11:40:36;8.75;;;2.15;;
45408;SDS011;31162;51.076;3.784;2023-03-14T11:51:15;10.32;;;1.85;;
45408;SDS011;31162;51.076;3.784;2023-03-14T11:56:32;13.77;;;2.40;;
45408;SDS011;31162;51.076;3.784;2023-03-14T11:59:01;11.93;;;3.05;;
45408;SDS011;31162;51.076;3.784;2023-03-14T12:01:44;16.95;;;2.58;;
45408;SDS011;31162;51.076;3.784;2023-03-14T12:04:19;12.93;;;2.88;;
45408;SDS011;31162;51.076;3.784;2023-03-14T12:07:12;17.33;;;2.50;;
45408;SDS011;31162;51.076;3.784;2023-03-14T12:09:45;13.48;;;3.00;;
45408;SDS011;31162;51.076;3.784;2023-03-14T12:12:13;14.27;;;3.17;;
45408;SDS011;31162;51.076;3.784;2023-03-14T12:14:44;13.77;;;2.70;;
45408;SDS011;31162;51.076;3.784;2023-03-14T12:17:24;8.60;;;2.47;;
45408;SDS011;31162;51.076;3.784;2023-03-14T12:20:04;12.25;;;2.03;;
45408;SDS011;31162;51.076;3.784;2023-03-14T12:22:35;15.32;;;3.22;;
45408;SDS011;31162;51.076;3.784;2023-03-14T12:25:28;16.25;;;3.85;;
45408;SDS011;31162;51.076;3.784;2023-03-14T12:43:51;13.20;;;3.30;;
45408;SDS011;31162;51.076;3.784;2023-03-14T12:48:46;18.00;;;2.70;;
45408;SDS011;31162;51.076;3.784;2023-03-14T12:51:15;21.20;;;3.00;;
45408;SDS011;31162;51.076;3.784;2023-03-14T12:56:22;13.15;;;2.67;;
45408;SDS011;31162;51.076;3.784;2023-03-14T13:01:56;12.35;;;2.67;;
45408;SDS011;31162;51.076;3.784;2023-03-14T13:04:26;13.07;;;2.78;;
45408;SDS011;31162;51.076;3.784;2023-03-14T13:06:58;11.27;;;1.35;;
45408;SDS011;31162;51.076;3.784;2023-03-14T13:11:54;13.00;;;2.03;;
45408;SDS011;31162;51.076;3.784;2023-03-14T13:14:25;12.90;;;2.65;;
45408;SDS011;31162;51.076;3.784;2023-03-14T13:16:53;10.65;;;2.72;;
45408;SDS011;31162;51.076;3.784;2023-03-14T13:19:20;11.57;;;3.00;;
45408;SDS011;31162;51.076;3.784;2023-03-14T13:21:49;8.27;;;1.95;;
45408;SDS011;31162;51.076;3.784;2023-03-14T13:24:22;17.13;;;2.58;;
45408;SDS011;31162;51.076;3.784;2023-03-14T13:26:51;14.95;;;2.17;;
45408;SDS011;31162;51.076;3.784;2023-03-14T13:29:30;10.15;;;2.40;;
45408;SDS011;31162;51.076;3.784;2023-03-14T13:32:00;14.18;;;2.72;;
45408;SDS011;31162;51.076;3.784;2023-03-14T13:34:31;13.77;;;2.63;;
45408;SDS011;31162;51.076;3.784;2023-03-14T13:36:58;13.30;;;2.87;;
45408;SDS011;31162;51.076;3.784;2023-03-14T13:39:25;10.13;;;2.10;;
45408;SDS011;31162;51.076;3.784;2023-03-14T13:41:53;17.65;;;2.90;;
45408;SDS011;31162;51.076;3.784;2023-03-14T13:44:34;10.93;;;2.00;;
45408;SDS011;31162;51.076;3.784;2023-03-14T13:47:04;8.13;;;1.98;;
45408;SDS011;31162;51.076;3.784;2023-03-14T13:49:35;6.70;;;1.45;;
45408;SDS011;31162;51.076;3.784;2023-03-14T13:52:03;5.70;;;1.30;;
45408;SDS011;31162;51.076;3.784;2023-03-14T13:54:29;7.70;;;1.50;;
45408;SDS011;31162;51.076;3.784;2023-03-14T13:57:03;6.90;;;1.33;;
45408;SDS011;31162;51.076;3.784;2023-03-14T13:59:31;6.55;;;1.23;;
45408;SDS011;31162;51.076;3.784;2023-03-14T14:01:58;5.63;;;1.27;;
45408;SDS011;31162;51.076;3.784;2023-03-14T14:04:28;6.10;;;1.50;;
45408;SDS011;31162;51.076;3.784;2023-03-14T14:06:58;4.80;;;1.33;;
45408;SDS011;31162;51.076;3.784;2023-03-14T14:09:35;4.72;;;0.95;;
45408;SDS011;31162;51.076;3.784;2023-03-14T14:14:41;3.55;;;0.70;;
45408;SDS011;31162;51.076;3.784;2023-03-14T14:17:12;1.15;;;0.60;;
45408;SDS011;31162;51.076;3.784;2023-03-14T14:19:41;1.27;;;0.70;;
45408;SDS011;31162;51.076;3.784;2023-03-14T14:22:09;1.50;;;0.75;;
45408;SDS011;31162;51.076;3.784;2023-03-14T14:24:36;2.38;;;1.00;;
45408;SDS011;31162;51.076;3.784;2023-03-14T14:27:10;1.67;;;0.90;;
45408;SDS011;31162;51.076;3.784;2023-03-14T14:29:41;1.90;;;0.95;;
45408;SDS011;31162;51.076;3.784;2023-03-14T14:35:06;2.83;;;0.90;;
45408;SDS011;31162;51.076;3.784;2023-03-14T14:37:28;2.65;;;1.45;;
45408;SDS011;31162;51.076;3.784;2023-03-14T14:40:00;3.65;;;1.08;;
45408;SDS011;31162;51.076;3.784;2023-03-14T14:42:32;3.13;;;1.10;;
45408;SDS011;31162;51.076;3.784;2023-03-14T14:44:58;6.18;;;2.08;;
45408;SDS011;31162;51.076;3.784;2023-03-14T14:47:25;3.40;;;1.38;;
45408;SDS011;31162;51.076;3.784;2023-03-14T14:49:53;3.50;;;1.10;;
45408;SDS011;31162;51.076;3.784;2023-03-14T14:52:42;5.50;;;1.70;;
45408;SDS011;31162;51.076;3.784;2023-03-14T14:55:19;3.28;;;1.10;;
45408;SDS011;31162;51.076;3.784;2023-03-14T14:57:49;5.07;;;1.40;;
45408;SDS011;31162;51.076;3.784;2023-03-14T15:00:20;5.03;;;1.60;;
45408;SDS011;31162;51.076;3.784;2023-03-14T15:02:49;4.13;;;1.83;;
45408;SDS011;31162;51.076;3.784;2023-03-14T15:05:21;7.65;;;1.52;;
45408;SDS011;31162;51.076;3.784;2023-03-14T15:07:48;7.40;;;1.52;;
45408;SDS011;31162;51.076;3.784;2023-03-14T15:10:18;4.78;;;1.30;;
45408;SDS011;31162;51.076;3.784;2023-03-14T15:12:45;7.88;;;1.67;;
45408;SDS011;31162;51.076;3.784;2023-03-14T15:15:12;5.97;;;1.60;;
45408;SDS011;31162;51.076;3.784;2023-03-14T15:17:40;9.77;;;1.80;;
45408;SDS011;31162;51.076;3.784;2023-03-14T15:20:06;9.73;;;2.65;;
45408;SDS011;31162;51.076;3.784;2023-03-14T15:22:38;8.38;;;2.20;;
45408;SDS011;31162;51.076;3.784;2023-03-14T15:25:04;5.85;;;1.65;;
45408;SDS011;31162;51.076;3.784;2023-03-14T15:27:30;9.18;;;1.70;;
45408;SDS011;31162;51.076;3.784;2023-03-14T15:29:57;8.48;;;1.60;;
45408;SDS011;31162;51.076;3.784;2023-03-14T15:32:24;25.20;;;10.25;;
45408;SDS011;31162;51.076;3.784;2023-03-14T15:34:52;5.75;;;1.63;;
45408;SDS011;31162;51.076;3.784;2023-03-14T15:37:21;12.50;;;1.88;;
45408;SDS011;31162;51.076;3.784;2023-03-14T15:39:47;8.65;;;1.90;;
45408;SDS011;31162;51.076;3.784;2023-03-14T15:42:12;9.13;;;1.83;;
45408;SDS011;31162;51.076;3.784;2023-03-14T15:44:38;14.73;;;2.47;;
45408;SDS011;31162;51.076;3.784;2023-03-14T15:47:04;8.75;;;1.83;;
45408;SDS011;31162;51.076;3.784;2023-03-14T15:49:30;9.18;;;2.38;;
45408;SDS011;31162;51.076;3.784;2023-03-14T15:51:56;9.07;;;1.33;;
45408;SDS011;31162;51.076;3.784;2023-03-14T15:54:23;10.90;;;2.13;;
45408;SDS011;31162;51.076;3.784;2023-03-14T15:56:48;11.85;;;2.63;;
45408;SDS011;31162;51.076;3.784;2023-03-14T15:59:14;12.95;;;2.95;;
45408;SDS011;31162;51.076;3.784;2023-03-14T16:01:40;7.55;;;1.63;;
45408;SDS011;31162;51.076;3.784;2023-03-14T16:04:05;8.27;;;1.33;;
45408;SDS011;31162;51.076;3.784;2023-03-14T16:06:31;10.85;;;1.77;;
45408;SDS011;31162;51.076;3.784;2023-03-14T16:08:57;8.13;;;1.75;;
45408;SDS011;31162;51.076;3.784;2023-03-14T16:11:23;6.10;;;1.75;;